Main page
METAR-TAF:

METAR-TAF

Airports :

Cerklje ob Krki Airport

Cerklje ob Krki, Slovenia

latitude: 45-53-59N, longitude: 15-30-55E, elevation: 157 m

Current weather observation

The report was made 45 minutes ago, at 22:00 UTC
Wind 2 kt from the West/Southwest
Temperature 19°C
Humidity 100%
Pressure 1011 hPa
Visibility 10 km or more

METAR: LJCE 202200Z AUTO 24002KT 9999 FEW021/// SCT082/// BKN100/// 19/19 Q1011

Time: 00:45 (22:45 UTC)

Forecast

The report was made 2 hours and 45 minutes ago, at 20:00 UTC
Forecast valid from 20 at 21 UTC to 21 at 06 UTC
Wind 5 kt from the Northeast
Visibility 10 km or more
Broken clouds at a height of 2000 ft
Probability 40%
from 21 at 00 UTC to 21 at 06 UTC
Visibility: 0400 m
at a height of 200 ft
fog,

TAF: LJCE 202000Z 2021/2106 04005KT 9999 BKN020 PROB40 2100/2106 0400 FG VV002

Weather observations and forecasts of more than 4000 airports (METAR and TAF reports).

The available stations are represented by yellow and red dots on the map.

Hover mouse over dot to see the name of the station.

Then click to see weather observations and forecasts.

To change the map : click on the green buttons with a black cross to zoom in, on the green button with a dash to zoom out, or on the green arrows for adjacent maps.


METAR-TAF: